createdAt,value
2022-09-27T00:01:08.672Z,10.48
2022-09-27T00:03:35.455Z,9.25
2022-09-27T00:06:19.174Z,8.10
2022-09-27T00:08:45.978Z,7.45
2022-09-27T00:11:43.754Z,7.10
2022-09-27T00:14:12.880Z,6.70
2022-09-27T00:16:41.663Z,7.00
2022-09-27T00:19:12.081Z,7.78
2022-09-27T00:21:38.665Z,7.22
2022-09-27T00:24:05.848Z,5.93
2022-09-27T00:26:33.066Z,7.65
2022-09-27T00:28:59.756Z,8.32
2022-09-27T00:31:29.853Z,8.32
2022-09-27T00:33:59.396Z,8.77
2022-09-27T00:36:27.455Z,9.07
2022-09-27T00:38:55.068Z,7.68
2022-09-27T00:41:32.304Z,8.68
2022-09-27T00:44:04.956Z,8.02
2022-09-27T00:46:48.046Z,8.77
2022-09-27T00:49:31.607Z,9.05
2022-09-27T00:52:03.741Z,9.38
2022-09-27T00:54:34.131Z,9.77
2022-09-27T00:57:01.598Z,10.00
2022-09-27T00:59:36.243Z,10.32
2022-09-27T01:02:06.255Z,10.40
2022-09-27T01:04:34.823Z,12.30
2022-09-27T01:07:01.468Z,11.18
2022-09-27T01:09:29.337Z,9.95
2022-09-27T01:12:01.796Z,11.27
2022-09-27T01:14:37.242Z,9.40
2022-09-27T01:17:15.793Z,9.85
2022-09-27T01:20:06.813Z,10.65
2022-09-27T01:22:36.607Z,10.60
2022-09-27T01:25:47.228Z,10.95
2022-09-27T01:28:26.599Z,11.30
2022-09-27T01:31:09.065Z,11.18
2022-09-27T01:33:56.379Z,11.20
2022-09-27T01:36:54.391Z,16.30
2022-09-27T01:39:23.991Z,44.28
2022-09-27T01:41:59.418Z,58.80
2022-09-27T01:44:39.603Z,66.60
2022-09-27T01:47:15.601Z,82.43
2022-09-27T01:50:17.967Z,46.13
2022-09-27T01:53:00.636Z,47.60
2022-09-27T01:55:32.698Z,38.22
2022-09-27T01:58:06.683Z,34.97
2022-09-27T02:00:34.942Z,19.42
2022-09-27T02:03:14.753Z,14.82
2022-09-27T02:05:54.308Z,9.95
2022-09-27T02:08:56.664Z,9.68
2022-09-27T02:11:23.548Z,10.05
2022-09-27T02:13:57.056Z,9.77
2022-09-27T02:16:45.794Z,10.85
2022-09-27T02:19:38.660Z,10.48
2022-09-27T02:22:31.656Z,11.07
2022-09-27T02:25:19.705Z,10.75
2022-09-27T02:27:50.990Z,12.00
2022-09-27T02:30:18.401Z,11.90
2022-09-27T02:32:45.315Z,11.70
2022-09-27T02:35:33.183Z,12.23
2022-09-27T02:38:01.126Z,11.57
2022-09-27T02:40:33.134Z,12.88
2022-09-27T02:43:01.942Z,12.40
2022-09-27T02:45:37.706Z,12.75
2022-09-27T02:48:14.923Z,13.13
2022-09-27T02:50:44.318Z,12.80
2022-09-27T02:53:27.464Z,13.80
2022-09-27T02:56:03.399Z,13.07
2022-09-27T02:59:02.285Z,12.00
2022-09-27T03:02:21.429Z,11.80
2022-09-27T03:04:54.683Z,12.63
2022-09-27T03:07:22.579Z,13.65
2022-09-27T03:09:52.705Z,12.30
2022-09-27T03:12:26.028Z,12.68
2022-09-27T03:14:58.173Z,11.65
2022-09-27T03:17:25.317Z,11.88
2022-09-27T03:19:52.133Z,12.30
2022-09-27T03:22:19.544Z,13.07
2022-09-27T03:24:46.232Z,11.68
2022-09-27T03:27:13.040Z,12.20
2022-09-27T03:29:39.780Z,11.98
2022-09-27T03:32:06.422Z,12.15
2022-09-27T03:34:33.063Z,13.68
2022-09-27T03:36:59.739Z,13.18
2022-09-27T03:39:26.787Z,14.00
2022-09-27T03:41:53.446Z,14.63
2022-09-27T03:44:20.126Z,14.38
2022-09-27T03:46:47.051Z,14.80
2022-09-27T03:49:14.321Z,14.80
2022-09-27T03:51:42.057Z,14.70
2022-09-27T03:54:09.048Z,14.25
2022-09-27T03:56:35.920Z,14.98
2022-09-27T03:59:02.611Z,15.80
2022-09-27T04:01:29.317Z,16.25
2022-09-27T04:03:56.197Z,16.38
2022-09-27T04:06:24.007Z,17.55
2022-09-27T04:08:50.834Z,17.58
2022-09-27T04:11:17.677Z,19.13
2022-09-27T04:13:44.665Z,18.88
2022-09-27T04:16:11.391Z,19.73
2022-09-27T04:18:38.082Z,21.80
2022-09-27T04:21:04.902Z,18.92
2022-09-27T04:23:31.853Z,20.08
2022-09-27T04:25:58.663Z,20.50
2022-09-27T04:28:25.402Z,21.17
2022-09-27T04:30:52.405Z,24.20
2022-09-27T04:33:19.467Z,22.83
2022-09-27T04:36:04.528Z,22.08
2022-09-27T04:38:31.190Z,20.58
2022-09-27T04:40:57.976Z,20.08
2022-09-27T04:43:24.699Z,20.38
2022-09-27T04:45:51.507Z,20.75
2022-09-27T04:48:18.643Z,20.63
2022-09-27T04:50:45.299Z,20.08
2022-09-27T04:53:15.798Z,18.20
2022-09-27T04:55:47.804Z,20.60
2022-09-27T04:58:15.126Z,19.98
2022-09-27T05:00:45.510Z,17.50
2022-09-27T05:03:12.166Z,18.58
2022-09-27T05:05:38.861Z,18.90
2022-09-27T05:08:05.867Z,18.92
2022-09-27T05:10:32.915Z,18.52
2022-09-27T05:12:59.597Z,19.88
2022-09-27T05:15:26.302Z,18.55
2022-09-27T05:17:53.238Z,16.85
2022-09-27T05:20:20.030Z,17.52
2022-09-27T05:22:48.240Z,15.23
2022-09-27T05:25:14.912Z,13.85
2022-09-27T05:27:41.639Z,14.13
2022-09-27T05:30:08.622Z,16.10
2022-09-27T05:32:35.906Z,14.50
2022-09-27T05:35:02.626Z,14.88
2022-09-27T05:37:31.543Z,13.50
2022-09-27T05:39:58.527Z,16.83
2022-09-27T05:42:25.328Z,16.55
2022-09-27T05:44:52.555Z,18.23
2022-09-27T05:47:19.365Z,17.58
2022-09-27T05:49:46.296Z,16.33
2022-09-27T05:52:16.039Z,16.38
2022-09-27T05:54:44.191Z,16.90
2022-09-27T05:57:10.915Z,17.55
2022-09-27T05:59:37.550Z,16.90
2022-09-27T06:02:04.430Z,17.38
2022-09-27T06:04:31.064Z,16.20
2022-09-27T06:06:59.129Z,16.52
2022-09-27T06:09:27.501Z,16.27
2022-09-27T06:11:54.124Z,16.98
2022-09-27T06:14:20.992Z,16.20
2022-09-27T06:16:48.190Z,16.10
2022-09-27T06:19:15.309Z,16.42
2022-09-27T06:21:42.079Z,17.58
2022-09-27T06:24:08.760Z,18.40
2022-09-27T06:26:35.763Z,18.40
2022-09-27T06:29:02.861Z,15.68
2022-09-27T06:31:29.410Z,15.77
2022-09-27T06:33:56.384Z,15.95
2022-09-27T06:36:23.267Z,17.67
2022-09-27T06:38:49.895Z,17.05
2022-09-27T06:41:16.838Z,17.17
2022-09-27T06:43:43.467Z,19.45
2022-09-27T06:46:10.298Z,20.80
2022-09-27T06:48:38.592Z,18.45
2022-09-27T06:51:05.796Z,18.90
2022-09-27T06:53:32.521Z,22.30
2022-09-27T06:56:02.807Z,20.92
2022-09-27T06:58:48.312Z,21.15
2022-09-27T07:01:15.454Z,22.77
2022-09-27T07:03:43.330Z,19.75
2022-09-27T07:06:18.922Z,22.95
2022-09-27T07:08:45.665Z,21.65
2022-09-27T07:11:12.539Z,21.08
2022-09-27T07:13:43.036Z,20.73
2022-09-27T07:16:14.159Z,20.77
2022-09-27T07:18:42.640Z,23.02
2022-09-27T07:21:09.864Z,22.20
2022-09-27T07:23:37.579Z,21.63
2022-09-27T07:26:05.796Z,22.88
2022-09-27T07:28:33.433Z,20.02
2022-09-27T07:31:00.467Z,21.42
2022-09-27T07:33:27.184Z,21.73
2022-09-27T07:35:54.192Z,18.38
2022-09-27T07:38:21.154Z,19.38
2022-09-27T07:40:48.473Z,17.73
2022-09-27T07:43:15.520Z,19.30
2022-09-27T07:45:42.260Z,17.10
2022-09-27T07:48:12.921Z,19.02
2022-09-27T07:50:40.178Z,19.88
2022-09-27T07:53:07.737Z,20.35
2022-09-27T07:55:35.012Z,17.38
2022-09-27T07:58:08.129Z,18.10
2022-09-27T08:00:36.891Z,19.52
2022-09-27T08:03:22.102Z,17.58
2022-09-27T08:05:48.887Z,19.55
2022-09-27T08:08:17.379Z,19.40
2022-09-27T08:10:47.297Z,19.70
2022-09-27T08:13:18.132Z,18.50
2022-09-27T08:15:44.939Z,18.55
2022-09-27T08:18:11.643Z,18.17
2022-09-27T08:20:38.362Z,19.58
2022-09-27T08:23:05.196Z,20.88
2022-09-27T08:25:31.944Z,19.73
2022-09-27T08:28:00.670Z,21.20
2022-09-27T08:30:32.805Z,20.63
2022-09-27T08:33:01.486Z,20.75
2022-09-27T08:35:28.970Z,22.67
2022-09-27T08:38:00.750Z,20.42
2022-09-27T08:40:46.173Z,21.50
2022-09-27T08:43:31.572Z,21.05
2022-09-27T08:46:21.702Z,21.20
2022-09-27T08:48:53.929Z,17.90
2022-09-27T08:51:25.320Z,18.60
2022-09-27T08:54:02.166Z,17.90
2022-09-27T08:56:29.034Z,16.35
2022-09-27T08:59:10.496Z,15.68
2022-09-27T09:01:37.581Z,15.30
2022-09-27T09:04:04.920Z,14.48
2022-09-27T09:06:46.170Z,13.40
2022-09-27T09:09:18.860Z,11.18
2022-09-27T09:12:24.481Z,11.35
2022-09-27T09:14:54.193Z,11.52
2022-09-27T09:17:44.049Z,10.23
2022-09-27T09:20:17.000Z,10.30
2022-09-27T09:22:50.070Z,10.52
2022-09-27T09:26:04.054Z,9.77
2022-09-27T09:28:55.414Z,8.38
2022-09-27T09:32:13.057Z,9.18
2022-09-27T09:34:49.647Z,7.93
2022-09-27T09:37:16.267Z,7.20
2022-09-27T09:39:51.814Z,6.15
2022-09-27T09:42:42.024Z,6.90
2022-09-27T09:45:19.486Z,7.03
2022-09-27T09:48:18.527Z,7.38
2022-09-27T09:50:51.346Z,7.97
2022-09-27T09:53:29.204Z,7.07
2022-09-27T09:56:01.165Z,6.70
2022-09-27T09:58:33.618Z,6.80
2022-09-27T10:01:16.604Z,5.60
2022-09-27T10:03:44.085Z,6.05
2022-09-27T10:06:12.855Z,6.20
2022-09-27T10:08:40.015Z,6.65
2022-09-27T10:11:07.390Z,6.00
2022-09-27T10:13:36.247Z,6.60
2022-09-27T10:16:10.345Z,7.03
2022-09-27T10:18:38.955Z,7.30
2022-09-27T10:21:23.042Z,6.05
2022-09-27T10:24:04.809Z,5.18
2022-09-27T10:26:33.478Z,5.18
2022-09-27T10:29:22.364Z,5.68
2022-09-27T10:31:50.609Z,5.03
2022-09-27T10:34:23.103Z,5.57
2022-09-27T10:37:22.227Z,4.95
2022-09-27T10:39:53.824Z,4.50
2022-09-27T10:42:39.128Z,5.35
2022-09-27T10:45:31.130Z,5.40
2022-09-27T10:48:00.814Z,5.30
2022-09-27T10:50:49.838Z,4.38
2022-09-27T10:53:20.891Z,5.00
2022-09-27T10:55:50.883Z,4.82
2022-09-27T10:58:27.075Z,4.60
2022-09-27T11:01:01.453Z,4.72
2022-09-27T11:03:30.363Z,4.43
2022-09-27T11:05:59.469Z,4.88
2022-09-27T11:08:33.892Z,4.60
2022-09-27T11:11:28.507Z,4.97
2022-09-27T11:14:00.971Z,5.00
2022-09-27T11:16:42.175Z,4.68
2022-09-27T11:19:30.417Z,5.07
2022-09-27T11:22:29.176Z,4.75
2022-09-27T11:25:12.968Z,4.90
2022-09-27T11:28:04.369Z,4.20
2022-09-27T11:30:53.203Z,4.30
2022-09-27T11:33:52.040Z,3.60
2022-09-27T11:36:27.657Z,3.20
2022-09-27T11:39:12.526Z,3.08
2022-09-27T11:42:00.848Z,3.28
2022-09-27T11:44:48.935Z,1.70
2022-09-27T11:47:29.439Z,2.53
2022-09-27T11:50:12.841Z,2.20
2022-09-27T11:52:54.424Z,1.60
2022-09-27T11:55:21.076Z,1.48
2022-09-27T11:57:53.516Z,1.13
2022-09-27T12:00:20.944Z,1.40
2022-09-27T12:03:12.309Z,1.35
2022-09-27T12:06:07.705Z,1.40
2022-09-27T12:08:40.437Z,1.55
2022-09-27T12:11:25.368Z,1.48
2022-09-27T12:13:57.786Z,1.02
2022-09-27T12:16:27.462Z,1.00
2022-09-27T12:18:55.599Z,1.13
2022-09-27T12:21:23.157Z,1.20
2022-09-27T12:23:53.483Z,1.42
2022-09-27T12:26:43.186Z,1.50
2022-09-27T12:29:25.792Z,1.20
2022-09-27T12:32:11.001Z,1.65
2022-09-27T12:34:44.453Z,1.10
2022-09-27T12:37:18.589Z,1.23
2022-09-27T12:39:57.519Z,1.58
2022-09-27T12:42:44.175Z,1.65
2022-09-27T12:45:15.367Z,1.20
2022-09-27T12:48:17.445Z,1.10
2022-09-27T12:50:52.865Z,1.13
2022-09-27T12:53:29.294Z,1.27
2022-09-27T12:56:16.175Z,1.15
2022-09-27T12:58:54.784Z,1.25
2022-09-27T13:01:34.143Z,1.08
2022-09-27T13:04:25.393Z,1.00
2022-09-27T13:07:05.790Z,1.02
2022-09-27T13:09:41.228Z,0.70
2022-09-27T13:12:27.148Z,0.90
2022-09-27T13:15:19.517Z,0.73
2022-09-27T13:17:50.249Z,0.60
2022-09-27T13:20:35.241Z,0.43
2022-09-27T13:23:29.247Z,0.47
2022-09-27T13:26:00.946Z,0.30
2022-09-27T13:28:33.493Z,0.20
2022-09-27T13:31:05.599Z,0.30
2022-09-27T13:33:49.123Z,0.25
2022-09-27T13:36:22.987Z,0.30
2022-09-27T13:39:15.857Z,0.30
2022-09-27T13:41:45.453Z,0.30
2022-09-27T13:44:49.458Z,0.20
2022-09-27T13:47:32.430Z,0.30
2022-09-27T13:50:27.581Z,0.25
2022-09-27T13:53:26.374Z,0.43
2022-09-27T13:55:54.061Z,0.20
2022-09-27T13:58:44.049Z,0.35
2022-09-27T14:01:28.507Z,0.25
2022-09-27T14:04:01.491Z,0.30
2022-09-27T14:06:41.945Z,0.40
2022-09-27T14:09:20.935Z,0.30
2022-09-27T14:11:55.427Z,0.30
2022-09-27T14:14:29.625Z,0.40
2022-09-27T14:16:59.923Z,0.40
2022-09-27T14:19:27.773Z,0.40
2022-09-27T14:21:55.596Z,0.40
2022-09-27T14:24:29.006Z,0.30
2022-09-27T14:27:27.187Z,0.20
2022-09-27T14:29:56.683Z,0.30
2022-09-27T14:32:26.369Z,0.20
2022-09-27T14:35:38.057Z,0.50
2022-09-27T14:38:36.666Z,0.50
2022-09-27T14:41:07.644Z,0.50
2022-09-27T14:43:37.287Z,0.70
2022-09-27T14:46:09.683Z,0.60
2022-09-27T14:48:40.470Z,0.70
2022-09-27T14:51:14.277Z,0.70
2022-09-27T14:53:57.341Z,0.60
2022-09-27T14:56:30.438Z,0.70
2022-09-27T14:59:16.426Z,0.60
2022-09-27T15:01:54.048Z,0.60
2022-09-27T15:04:23.365Z,0.70
2022-09-27T15:06:50.692Z,1.13
2022-09-27T15:09:19.165Z,1.95
2022-09-27T15:11:51.584Z,1.52
2022-09-27T15:14:22.630Z,0.73
2022-09-27T15:16:52.131Z,0.43
2022-09-27T15:19:28.188Z,0.47
2022-09-27T15:21:55.797Z,1.20
2022-09-27T15:24:40.765Z,1.08
2022-09-27T15:27:24.202Z,0.70
2022-09-27T15:29:55.754Z,1.02
2022-09-27T15:32:26.184Z,1.08
2022-09-27T15:34:53.983Z,0.95
2022-09-27T15:37:33.752Z,1.58
2022-09-27T15:40:44.847Z,2.33
2022-09-27T15:43:33.018Z,6.25
2022-09-27T15:46:03.729Z,1.90
2022-09-27T15:48:32.848Z,1.00
2022-09-27T15:51:00.951Z,1.15
2022-09-27T15:53:33.624Z,6.88
2022-09-27T15:56:01.914Z,2.00
2022-09-27T15:58:29.375Z,3.05
2022-09-27T16:00:57.543Z,5.82
2022-09-27T16:03:25.726Z,2.45
2022-09-27T16:05:55.499Z,2.28
2022-09-27T16:08:23.108Z,2.95
2022-09-27T16:10:52.758Z,3.92
2022-09-27T16:13:19.379Z,3.08
2022-09-27T16:15:47.783Z,3.13
2022-09-27T16:18:14.439Z,2.20
2022-09-27T16:20:41.473Z,4.35
2022-09-27T16:23:08.588Z,4.20
2022-09-27T16:25:35.355Z,2.55
2022-09-27T16:28:04.197Z,2.33
2022-09-27T16:30:32.846Z,1.70
2022-09-27T16:32:59.891Z,1.70
2022-09-27T16:35:28.488Z,2.30
2022-09-27T16:37:55.314Z,2.70
2022-09-27T16:40:22.920Z,2.05
2022-09-27T16:42:49.986Z,2.28
2022-09-27T16:45:19.205Z,2.50
2022-09-27T16:47:46.652Z,2.67
2022-09-27T16:50:33.692Z,3.47
2022-09-27T16:53:00.452Z,3.50
2022-09-27T16:55:28.947Z,2.85
2022-09-27T16:57:58.770Z,2.78
2022-09-27T17:00:25.941Z,2.50
2022-09-27T17:02:53.371Z,3.30
2022-09-27T17:05:20.918Z,2.22
2022-09-27T17:07:51.883Z,2.63
2022-09-27T17:10:19.637Z,3.72
2022-09-27T17:12:47.471Z,3.15
2022-09-27T17:15:14.992Z,4.35
2022-09-27T17:17:42.087Z,4.03
2022-09-27T17:20:08.679Z,3.92
2022-09-27T17:22:35.307Z,6.38
2022-09-27T17:25:01.915Z,6.70
2022-09-27T17:27:28.694Z,7.50
2022-09-27T17:29:55.739Z,9.88
2022-09-27T17:32:22.948Z,6.32
2022-09-27T17:34:49.676Z,5.97
2022-09-27T17:37:16.725Z,6.22
2022-09-27T17:39:43.705Z,5.72
2022-09-27T17:42:11.392Z,5.55
2022-09-27T17:44:38.173Z,6.90
2022-09-27T17:47:23.814Z,8.65
2022-09-27T17:50:08.971Z,6.90
2022-09-27T17:52:35.612Z,7.95
2022-09-27T17:55:03.466Z,8.30
2022-09-27T17:57:30.381Z,8.18
2022-09-27T17:59:58.251Z,8.88
2022-09-27T18:02:26.337Z,9.27
2022-09-27T18:04:53.115Z,8.88
2022-09-27T18:07:20.046Z,10.20
2022-09-27T18:09:46.837Z,10.52
2022-09-27T18:12:13.902Z,10.68
2022-09-27T18:14:40.703Z,10.45
2022-09-27T18:17:27.836Z,9.15
2022-09-27T18:19:57.038Z,9.38
2022-09-27T18:22:30.373Z,10.00
2022-09-27T18:24:57.300Z,10.73
2022-09-27T18:27:23.908Z,10.05
2022-09-27T18:29:50.539Z,9.88
2022-09-27T18:32:17.118Z,9.15
2022-09-27T18:34:43.859Z,11.40
2022-09-27T18:37:10.825Z,10.20
2022-09-27T18:39:37.715Z,9.18
2022-09-27T18:42:04.646Z,8.00
2022-09-27T18:44:31.387Z,9.68
2022-09-27T18:46:58.796Z,7.68
2022-09-27T18:49:27.772Z,7.43
2022-09-27T18:51:57.277Z,8.98
2022-09-27T18:54:24.303Z,9.07
2022-09-27T18:56:52.347Z,8.43
2022-09-27T18:59:20.950Z,8.50
2022-09-27T19:01:47.899Z,8.88
2022-09-27T19:04:21.514Z,7.97
2022-09-27T19:06:51.459Z,7.47
2022-09-27T19:09:18.412Z,7.28
2022-09-27T19:11:45.442Z,6.00
2022-09-27T19:14:17.561Z,5.80
2022-09-27T19:16:47.508Z,7.35
2022-09-27T19:19:15.890Z,8.98
2022-09-27T19:21:42.721Z,9.68
2022-09-27T19:24:09.538Z,9.70
2022-09-27T19:26:36.170Z,10.70
2022-09-27T19:29:04.132Z,12.00
2022-09-27T19:31:31.368Z,11.65
2022-09-27T19:34:00.992Z,11.30
2022-09-27T19:36:30.371Z,11.80
2022-09-27T19:38:58.739Z,11.45
2022-09-27T19:41:26.937Z,12.60
2022-09-27T19:43:55.323Z,12.50
2022-09-27T19:46:23.635Z,12.48
2022-09-27T19:48:50.667Z,13.25
2022-09-27T19:51:22.766Z,13.25
2022-09-27T19:53:50.061Z,12.25
2022-09-27T19:56:16.983Z,12.43
2022-09-27T19:58:44.114Z,12.15
2022-09-27T20:01:20.614Z,25.98
2022-09-27T20:03:49.593Z,13.98
2022-09-27T20:06:18.937Z,16.77
2022-09-27T20:08:47.986Z,13.02
2022-09-27T20:11:20.307Z,13.43
2022-09-27T20:13:47.636Z,16.20
2022-09-27T20:16:17.716Z,14.00
2022-09-27T20:18:49.164Z,12.85
2022-09-27T20:21:17.477Z,15.05
2022-09-27T20:23:44.530Z,14.50
2022-09-27T20:26:14.148Z,15.50
2022-09-27T20:28:45.632Z,17.23
2022-09-27T20:31:17.865Z,14.75
2022-09-27T20:33:46.498Z,13.82
2022-09-27T20:36:18.972Z,15.88
2022-09-27T20:38:48.166Z,14.20
2022-09-27T20:41:18.222Z,15.65
2022-09-27T20:43:45.947Z,14.80
2022-09-27T20:46:17.905Z,14.95
2022-09-27T20:48:46.704Z,15.38
2022-09-27T20:51:14.338Z,13.93
2022-09-27T20:53:42.698Z,14.27
2022-09-27T20:56:23.731Z,13.25
2022-09-27T20:58:52.517Z,14.18
2022-09-27T21:01:20.727Z,13.23
2022-09-27T21:03:49.860Z,11.45
2022-09-27T21:06:16.681Z,14.10
2022-09-27T21:08:43.301Z,14.23
2022-09-27T21:11:12.519Z,13.52
2022-09-27T21:13:40.749Z,13.25
2022-09-27T21:16:09.939Z,13.93
2022-09-27T21:18:36.990Z,14.57
2022-09-27T21:21:05.476Z,13.90
2022-09-27T21:23:33.651Z,9.48
2022-09-27T21:26:05.826Z,9.60
2022-09-27T21:28:37.246Z,9.23
2022-09-27T21:31:09.504Z,4.88
2022-09-27T21:33:37.108Z,1.50
2022-09-27T21:36:05.193Z,0.73
2022-09-27T21:38:32.874Z,0.80
2022-09-27T21:41:05.378Z,0.40
2022-09-27T21:43:34.674Z,0.40
2022-09-27T21:46:06.966Z,0.50
2022-09-27T21:48:34.797Z,1.25
2022-09-27T21:51:11.634Z,10.20
2022-09-27T21:53:39.995Z,11.77
2022-09-27T21:56:07.589Z,11.77
2022-09-27T21:58:39.760Z,12.27
2022-09-27T22:01:11.410Z,13.52
2022-09-27T22:03:39.594Z,13.02
2022-09-27T22:06:09.733Z,15.02
2022-09-27T22:08:37.195Z,17.27
2022-09-27T22:11:04.958Z,18.13
2022-09-27T22:13:32.168Z,19.25
2022-09-27T22:16:03.890Z,22.60
2022-09-27T22:18:30.547Z,25.35
2022-09-27T22:21:02.654Z,30.35
2022-09-27T22:23:29.823Z,33.72
2022-09-27T22:25:57.263Z,46.65
2022-09-27T22:28:25.230Z,52.72
2022-09-27T22:30:52.076Z,72.97
2022-09-27T22:33:19.365Z,54.38
2022-09-27T22:35:49.664Z,65.18
2022-09-27T22:38:16.366Z,77.15
2022-09-27T22:40:43.054Z,35.22
2022-09-27T22:43:09.831Z,62.92
2022-09-27T22:45:36.659Z,48.53
2022-09-27T22:48:03.328Z,54.80
2022-09-27T22:50:30.968Z,41.45
2022-09-27T22:52:57.782Z,44.10
2022-09-27T22:55:24.863Z,50.25
2022-09-27T22:57:51.487Z,34.05
2022-09-27T23:00:18.130Z,30.70
2022-09-27T23:02:44.898Z,36.72
2022-09-27T23:05:11.535Z,32.20
2022-09-27T23:07:38.099Z,42.83
2022-09-27T23:10:05.397Z,60.15
2022-09-27T23:12:31.927Z,29.55
2022-09-27T23:14:58.599Z,42.58
2022-09-27T23:17:25.170Z,37.95
2022-09-27T23:19:51.731Z,32.58
2022-09-27T23:22:18.918Z,33.05
2022-09-27T23:24:45.505Z,39.70
2022-09-27T23:27:30.444Z,33.70
2022-09-27T23:29:57.166Z,36.05
2022-09-27T23:32:23.708Z,36.35
2022-09-27T23:34:50.327Z,39.53
2022-09-27T23:37:17.004Z,43.45
2022-09-27T23:39:43.614Z,47.38
2022-09-27T23:42:10.287Z,42.75
2022-09-27T23:44:36.933Z,34.15
2022-09-27T23:47:04.305Z,32.45
2022-09-27T23:49:32.282Z,33.22
2022-09-27T23:52:00.754Z,30.42
2022-09-27T23:54:28.199Z,31.40
2022-09-27T23:56:55.371Z,34.25
2022-09-27T23:59:22.062Z,36.45
